Big Bear Station Historical Data
Daily Summary for December 2, 2017 Units:  English    Metric   Both
« Previous Day
Next Day »
Daily Weekly Monthly Yearly Custom
  High: Low: Average:
Temperature: 56.8 °F 32.7 °F 43.2 °F
Dew Point: 34.7 °F 27.4 °F 30.5 °F
Humidity: 91 % 36 % 63 %
Wind Speed: 7.3 mph 0.0 mph 1 mph
Wind Gust: -999.0 mph - -
Wind:- - WSW
Pressure: 30.23 in 30.17 in -
Precipitation: 0.00 in    
Historical Graphs
 
 
Tabular Data for December 2, 2017
Time Temperature Dew Point Pressure Wind Wind Speed Wind Gust Humidity Rainfall Rate (Hourly)
00:13 40.3 °F 31.3 °F 30.21 in Calm   -999.0 mph 70 % 0 in
00:28 40.3 °F 31.3 °F 30.21 in South 2.2 mph -999.0 mph 70 % 0 in
00:44 40.6 °F 31.6 °F 30.21 in South 2.2 mph -999.0 mph 70 % 0 in
01:30 37.9 °F 30.7 °F 30.21 in Calm   -999.0 mph 75 % 0 in
02:00 38.1 °F 30.9 °F 30.20 in Calm   -999.0 mph 75 % 0 in
02:15 37.2 °F 30.3 °F 30.20 in Calm   -999.0 mph 76 % 0 in
02:30 36.5 °F 30.0 °F 30.20 in Calm   -999.0 mph 77 % 0 in
03:01 35.8 °F 29.9 °F 30.20 in Calm   -999.0 mph 79 % 0 in
03:16 35.6 °F 30.0 °F 30.20 in Calm   -999.0 mph 80 % 0 in
03:31 35.2 °F 30.0 °F 30.20 in Calm   -999.0 mph 81 % 0 in
03:46 34.7 °F 29.5 °F 30.20 in Calm   -999.0 mph 81 % 0 in
04:02 34.5 °F 29.6 °F 30.20 in Calm   -999.0 mph 82 % 0 in
04:47 33.6 °F 29.0 °F 30.20 in Calm   -999.0 mph 83 % 0 in
05:02 33.8 °F 28.9 °F 30.20 in Calm   -999.0 mph 82 % 0 in
05:18 33.3 °F 29.0 °F 30.20 in Calm   -999.0 mph 84 % 0 in
05:33 33.6 °F 30.4 °F 30.20 in Calm   -999.0 mph 88 % 0 in
06:34 32.9 °F 30.3 °F 30.21 in Calm   -999.0 mph 90 % 0 in
07:04 33.3 °F 30.1 °F 30.21 in Calm   -999.0 mph 88 % 0 in
07:19 32.7 °F 30.4 °F 30.21 in Calm   -999.0 mph 91 % 0 in
07:35 32.7 °F 29.8 °F 30.22 in Calm   -999.0 mph 89 % 0 in
07:50 33.3 °F 30.1 °F 30.22 in Calm   -999.0 mph 88 % 0 in
08:05 33.4 °F 30.2 °F 30.22 in Calm   -999.0 mph 88 % 0 in
08:20 33.8 °F 30.9 °F 30.23 in Calm   -999.0 mph 89 % 0 in
08:35 36.1 °F 32.6 °F 30.23 in Calm   -999.0 mph 87 % 0 in
08:51 37.0 °F 33.8 °F 30.23 in Calm   -999.0 mph 88 % 0 in
09:07 40.1 °F 34.7 °F 30.23 in Calm   -999.0 mph 81 % 0 in
09:22 46.0 °F 32.0 °F 30.23 in NW 2.7 mph -999.0 mph 58 % 0 in
09:53 51.6 °F 30.9 °F 30.23 in Calm   -999.0 mph 45 % 0 in
11:09 55.4 °F 31.5 °F 30.22 in West 2.7 mph -999.0 mph 40 % 0 in
11:24 55.2 °F 30.7 °F 30.21 in WNW 3.2 mph -999.0 mph 39 % 0 in
11:55 56.3 °F 30.3 °F 30.21 in East 1.1 mph -999.0 mph 37 % 0 in
12:10 56.5 °F 29.9 °F 30.20 in Calm   -999.0 mph 36 % 0 in
12:25 56.8 °F 30.8 °F 30.19 in NE 6.3 mph -999.0 mph 37 % 0 in
12:56 56.3 °F 31.6 °F 30.19 in NW 3.2 mph -999.0 mph 39 % 0 in
13:11 55.8 °F 31.8 °F 30.18 in NW 4.2 mph -999.0 mph 40 % 0 in
13:26 55.6 °F 31.0 °F 30.18 in ENE 4.2 mph -999.0 mph 39 % 0 in
13:57 55.0 °F 31.7 °F 30.18 in NW 3.7 mph -999.0 mph 41 % 0 in
14:12 54.3 °F 31.1 °F 30.18 in West 2.2 mph -999.0 mph 41 % 0 in
14:58 53.6 °F 31.6 °F 30.18 in NW 7.3 mph -999.0 mph 43 % 0 in
15:13 53.4 °F 31.5 °F 30.17 in North 1.7 mph -999.0 mph 43 % 0 in
15:28 52.9 °F 31.0 °F 30.17 in NW 1.1 mph -999.0 mph 43 % 0 in
15:59 50.9 °F 29.2 °F 30.18 in WNW 3.2 mph -999.0 mph 43 % 0 in
16:14 50.2 °F 29.7 °F 30.18 in Calm   -999.0 mph 45 % 0 in
16:44 47.8 °F 30.5 °F 30.18 in Calm   -999.0 mph 51 % 0 in
17:00 46.9 °F 30.7 °F 30.18 in SW 3.7 mph -999.0 mph 53 % 0 in
17:15 46.4 °F 31.1 °F 30.18 in Calm   -999.0 mph 55 % 0 in
17:30 45.5 °F 30.7 °F 30.18 in Calm   -999.0 mph 56 % 0 in
17:45 45.1 °F 30.8 °F 30.18 in Calm   -999.0 mph 57 % 0 in
18:01 45.9 °F 32.0 °F 30.18 in NNW 3.7 mph -999.0 mph 58 % 0 in
18:16 45.9 °F 32.0 °F 30.18 in Calm   -999.0 mph 58 % 0 in
18:32 45.9 °F 32.0 °F 30.19 in North 1.1 mph -999.0 mph 58 % 0 in
19:02 45.3 °F 31.4 °F 30.19 in WNW 1.7 mph -999.0 mph 58 % 0 in
19:17 45.1 °F 31.2 °F 30.20 in NW 2.2 mph -999.0 mph 58 % 0 in
19:33 45.0 °F 31.1 °F 30.19 in Calm   -999.0 mph 58 % 0 in
19:48 44.1 °F 30.7 °F 30.19 in Calm   -999.0 mph 59 % 0 in
20:03 43.7 °F 30.3 °F 30.20 in SSW 1.7 mph -999.0 mph 59 % 0 in
20:19 42.8 °F 30.3 °F 30.20 in Calm   -999.0 mph 61 % 0 in
20:34 42.6 °F 30.5 °F 30.20 in Calm   -999.0 mph 62 % 0 in
20:49 42.6 °F 30.1 °F 30.20 in Calm   -999.0 mph 61 % 0 in
21:04 41.9 °F 29.0 °F 30.20 in Calm   -999.0 mph 60 % 0 in
21:19 41.2 °F 28.0 °F 30.20 in SSW 1.7 mph -999.0 mph 59 % 0 in
21:35 40.6 °F 27.4 °F 30.20 in Calm   -999.0 mph 59 % 0 in
22:21 42.1 °F 28.0 °F 30.20 in Calm   -999.0 mph 57 % 0 in
22:36 41.5 °F 27.8 °F 30.20 in Calm   -999.0 mph 58 % 0 in
22:51 41.2 °F 28.4 °F 30.20 in Calm   -999.0 mph 60 % 0 in
23:22 40.8 °F 28.8 °F 30.20 in Calm   -999.0 mph 62 % 0 in
23:37 40.6 °F 28.6 °F 30.19 in Calm   -999.0 mph 62 % 0 in
Big Bear CA Weather
Compliments of Weather Underground - 1.5 mb